sensor_id;sensor_type;location;lat;lon;timestamp;P1;durP1;ratioP1;P2;durP2;ratioP2
32639;SDS011;19049;52.524;11.468;2023-06-19T00:00:53;5.20;;;4.70;;
32639;SDS011;19049;52.524;11.468;2023-06-19T00:03:19;5.53;;;5.03;;
32639;SDS011;19049;52.524;11.468;2023-06-19T00:05:45;5.73;;;5.23;;
32639;SDS011;19049;52.524;11.468;2023-06-19T00:08:11;5.57;;;5.13;;
32639;SDS011;19049;52.524;11.468;2023-06-19T00:10:36;6.77;;;5.77;;
32639;SDS011;19049;52.524;11.468;2023-06-19T00:13:02;5.40;;;4.90;;
32639;SDS011;19049;52.524;11.468;2023-06-19T00:15:28;5.23;;;4.73;;
32639;SDS011;19049;52.524;11.468;2023-06-19T00:17:55;5.77;;;5.27;;
32639;SDS011;19049;52.524;11.468;2023-06-19T00:20:22;6.37;;;5.70;;
32639;SDS011;19049;52.524;11.468;2023-06-19T00:22:48;4.90;;;4.50;;
32639;SDS011;19049;52.524;11.468;2023-06-19T00:25:16;6.33;;;5.57;;
32639;SDS011;19049;52.524;11.468;2023-06-19T00:27:46;5.30;;;4.87;;
32639;SDS011;19049;52.524;11.468;2023-06-19T00:30:12;5.20;;;4.70;;
32639;SDS011;19049;52.524;11.468;2023-06-19T00:32:39;4.90;;;4.50;;
32639;SDS011;19049;52.524;11.468;2023-06-19T00:35:14;5.77;;;5.27;;
32639;SDS011;19049;52.524;11.468;2023-06-19T00:37:40;5.43;;;4.93;;
32639;SDS011;19049;52.524;11.468;2023-06-19T00:40:10;5.33;;;4.80;;
32639;SDS011;19049;52.524;11.468;2023-06-19T00:42:44;5.30;;;4.80;;
32639;SDS011;19049;52.524;11.468;2023-06-19T00:45:09;5.43;;;4.93;;
32639;SDS011;19049;52.524;11.468;2023-06-19T00:47:35;5.80;;;5.20;;
32639;SDS011;19049;52.524;11.468;2023-06-19T00:50:01;5.33;;;4.63;;
32639;SDS011;19049;52.524;11.468;2023-06-19T00:52:27;5.60;;;5.10;;
32639;SDS011;19049;52.524;11.468;2023-06-19T00:54:52;6.13;;;4.80;;
32639;SDS011;19049;52.524;11.468;2023-06-19T00:57:18;5.07;;;4.67;;
32639;SDS011;19049;52.524;11.468;2023-06-19T00:59:44;6.17;;;4.83;;
32639;SDS011;19049;52.524;11.468;2023-06-19T01:02:10;5.13;;;4.73;;
32639;SDS011;19049;52.524;11.468;2023-06-19T01:04:36;5.83;;;5.33;;
32639;SDS011;19049;52.524;11.468;2023-06-19T01:07:06;5.03;;;4.40;;
32639;SDS011;19049;52.524;11.468;2023-06-19T01:09:45;5.07;;;4.57;;
32639;SDS011;19049;52.524;11.468;2023-06-19T01:12:23;5.47;;;4.87;;
32639;SDS011;19049;52.524;11.468;2023-06-19T01:14:54;5.47;;;4.97;;
32639;SDS011;19049;52.524;11.468;2023-06-19T01:17:23;5.40;;;4.77;;
32639;SDS011;19049;52.524;11.468;2023-06-19T01:19:50;6.23;;;5.07;;
32639;SDS011;19049;52.524;11.468;2023-06-19T01:22:29;6.07;;;4.30;;
32639;SDS011;19049;52.524;11.468;2023-06-19T01:24:55;5.53;;;5.03;;
32639;SDS011;19049;52.524;11.468;2023-06-19T01:27:21;4.77;;;4.37;;
32639;SDS011;19049;52.524;11.468;2023-06-19T01:29:48;5.40;;;4.90;;
32639;SDS011;19049;52.524;11.468;2023-06-19T01:32:22;5.20;;;4.70;;
32639;SDS011;19049;52.524;11.468;2023-06-19T01:34:56;6.27;;;5.37;;
32639;SDS011;19049;52.524;11.468;2023-06-19T01:37:24;5.70;;;5.10;;
32639;SDS011;19049;52.524;11.468;2023-06-19T01:39:52;5.63;;;5.13;;
32639;SDS011;19049;52.524;11.468;2023-06-19T01:42:21;4.57;;;4.17;;
32639;SDS011;19049;52.524;11.468;2023-06-19T01:44:48;5.53;;;5.03;;
32639;SDS011;19049;52.524;11.468;2023-06-19T01:47:14;5.93;;;5.37;;
32639;SDS011;19049;52.524;11.468;2023-06-19T01:49:44;5.53;;;5.03;;
32639;SDS011;19049;52.524;11.468;2023-06-19T01:52:14;5.30;;;4.90;;
32639;SDS011;19049;52.524;11.468;2023-06-19T01:54:40;6.13;;;5.30;;
32639;SDS011;19049;52.524;11.468;2023-06-19T01:57:05;5.63;;;4.97;;
32639;SDS011;19049;52.524;11.468;2023-06-19T01:59:31;5.80;;;5.30;;
32639;SDS011;19049;52.524;11.468;2023-06-19T02:01:57;5.80;;;5.30;;
32639;SDS011;19049;52.524;11.468;2023-06-19T02:04:23;5.60;;;5.10;;
32639;SDS011;19049;52.524;11.468;2023-06-19T02:06:49;5.57;;;5.07;;
32639;SDS011;19049;52.524;11.468;2023-06-19T02:09:15;5.07;;;4.57;;
32639;SDS011;19049;52.524;11.468;2023-06-19T02:11:41;6.20;;;4.77;;
32639;SDS011;19049;52.524;11.468;2023-06-19T02:14:07;5.60;;;5.07;;
32639;SDS011;19049;52.524;11.468;2023-06-19T02:16:34;5.03;;;4.63;;
32639;SDS011;19049;52.524;11.468;2023-06-19T02:19:00;5.27;;;4.80;;
32639;SDS011;19049;52.524;11.468;2023-06-19T02:21:25;6.43;;;5.83;;
32639;SDS011;19049;52.524;11.468;2023-06-19T02:23:53;6.03;;;5.53;;
32639;SDS011;19049;52.524;11.468;2023-06-19T02:26:19;5.67;;;5.17;;
32639;SDS011;19049;52.524;11.468;2023-06-19T02:28:44;5.53;;;5.03;;
32639;SDS011;19049;52.524;11.468;2023-06-19T02:31:10;6.50;;;5.60;;
32639;SDS011;19049;52.524;11.468;2023-06-19T02:33:36;6.00;;;5.50;;
32639;SDS011;19049;52.524;11.468;2023-06-19T02:36:01;5.47;;;5.03;;
32639;SDS011;19049;52.524;11.468;2023-06-19T02:38:29;6.60;;;6.00;;
32639;SDS011;19049;52.524;11.468;2023-06-19T02:40:55;5.70;;;5.20;;
32639;SDS011;19049;52.524;11.468;2023-06-19T02:43:22;5.83;;;5.33;;
32639;SDS011;19049;52.524;11.468;2023-06-19T02:45:48;5.93;;;5.37;;
32639;SDS011;19049;52.524;11.468;2023-06-19T02:48:14;5.87;;;5.37;;
32639;SDS011;19049;52.524;11.468;2023-06-19T02:50:39;6.03;;;5.53;;
32639;SDS011;19049;52.524;11.468;2023-06-19T02:53:05;6.57;;;5.97;;
32639;SDS011;19049;52.524;11.468;2023-06-19T02:55:31;5.80;;;5.30;;
32639;SDS011;19049;52.524;11.468;2023-06-19T02:57:56;5.43;;;4.93;;
32639;SDS011;19049;52.524;11.468;2023-06-19T03:00:22;6.57;;;5.47;;
32639;SDS011;19049;52.524;11.468;2023-06-19T03:02:48;5.57;;;5.07;;
32639;SDS011;19049;52.524;11.468;2023-06-19T03:05:15;5.40;;;4.90;;
32639;SDS011;19049;52.524;11.468;2023-06-19T03:07:42;5.93;;;5.43;;
32639;SDS011;19049;52.524;11.468;2023-06-19T03:10:08;6.30;;;5.73;;
32639;SDS011;19049;52.524;11.468;2023-06-19T03:12:33;5.83;;;5.33;;
32639;SDS011;19049;52.524;11.468;2023-06-19T03:14:59;5.90;;;5.40;;
32639;SDS011;19049;52.524;11.468;2023-06-19T03:17:25;6.20;;;5.60;;
32639;SDS011;19049;52.524;11.468;2023-06-19T03:19:51;5.63;;;5.13;;
32639;SDS011;19049;52.524;11.468;2023-06-19T03:22:17;6.07;;;5.47;;
32639;SDS011;19049;52.524;11.468;2023-06-19T03:24:44;5.80;;;5.30;;
32639;SDS011;19049;52.524;11.468;2023-06-19T03:27:10;5.50;;;5.00;;
32639;SDS011;19049;52.524;11.468;2023-06-19T03:29:36;5.70;;;5.07;;
32639;SDS011;19049;52.524;11.468;2023-06-19T03:32:02;5.40;;;4.90;;
32639;SDS011;19049;52.524;11.468;2023-06-19T03:34:27;5.90;;;5.33;;
32639;SDS011;19049;52.524;11.468;2023-06-19T03:36:53;5.83;;;5.33;;
32639;SDS011;19049;52.524;11.468;2023-06-19T03:39:19;5.43;;;4.93;;
32639;SDS011;19049;52.524;11.468;2023-06-19T03:41:45;6.37;;;5.77;;
32639;SDS011;19049;52.524;11.468;2023-06-19T03:44:11;6.13;;;5.63;;
32639;SDS011;19049;52.524;11.468;2023-06-19T03:46:36;5.27;;;4.77;;
32639;SDS011;19049;52.524;11.468;2023-06-19T03:49:02;6.13;;;5.60;;
32639;SDS011;19049;52.524;11.468;2023-06-19T03:51:29;6.03;;;5.53;;
32639;SDS011;19049;52.524;11.468;2023-06-19T03:53:55;7.00;;;6.40;;
32639;SDS011;19049;52.524;11.468;2023-06-19T03:56:21;5.93;;;5.33;;
32639;SDS011;19049;52.524;11.468;2023-06-19T03:58:46;6.90;;;5.40;;
32639;SDS011;19049;52.524;11.468;2023-06-19T04:01:12;5.70;;;5.20;;
32639;SDS011;19049;52.524;11.468;2023-06-19T04:03:38;6.57;;;5.97;;
32639;SDS011;19049;52.524;11.468;2023-06-19T04:06:04;6.57;;;5.83;;
32639;SDS011;19049;52.524;11.468;2023-06-19T04:08:30;5.83;;;5.33;;
32639;SDS011;19049;52.524;11.468;2023-06-19T04:10:56;6.50;;;5.93;;
32639;SDS011;19049;52.524;11.468;2023-06-19T04:13:21;6.53;;;5.93;;
32639;SDS011;19049;52.524;11.468;2023-06-19T04:15:47;6.43;;;5.93;;
32639;SDS011;19049;52.524;11.468;2023-06-19T04:18:13;6.83;;;6.23;;
32639;SDS011;19049;52.524;11.468;2023-06-19T04:20:39;6.50;;;5.90;;
32639;SDS011;19049;52.524;11.468;2023-06-19T04:23:05;6.27;;;5.77;;
32639;SDS011;19049;52.524;11.468;2023-06-19T04:25:30;6.47;;;5.87;;
32639;SDS011;19049;52.524;11.468;2023-06-19T04:27:56;6.63;;;6.03;;
32639;SDS011;19049;52.524;11.468;2023-06-19T04:30:22;6.40;;;5.90;;
32639;SDS011;19049;52.524;11.468;2023-06-19T04:32:48;5.93;;;5.40;;
32639;SDS011;19049;52.524;11.468;2023-06-19T04:35:13;5.97;;;5.47;;
32639;SDS011;19049;52.524;11.468;2023-06-19T04:37:39;6.40;;;5.90;;
32639;SDS011;19049;52.524;11.468;2023-06-19T04:40:05;6.33;;;5.73;;
32639;SDS011;19049;52.524;11.468;2023-06-19T04:42:32;6.13;;;5.53;;
32639;SDS011;19049;52.524;11.468;2023-06-19T04:44:58;6.80;;;5.60;;
32639;SDS011;19049;52.524;11.468;2023-06-19T04:47:25;6.47;;;5.87;;
32639;SDS011;19049;52.524;11.468;2023-06-19T04:49:50;6.23;;;5.70;;
32639;SDS011;19049;52.524;11.468;2023-06-19T04:52:16;6.57;;;5.97;;
32639;SDS011;19049;52.524;11.468;2023-06-19T04:54:43;6.13;;;5.60;;
32639;SDS011;19049;52.524;11.468;2023-06-19T04:57:09;6.77;;;5.97;;
32639;SDS011;19049;52.524;11.468;2023-06-19T04:59:35;6.50;;;5.87;;
32639;SDS011;19049;52.524;11.468;2023-06-19T05:02:01;6.13;;;5.63;;
32639;SDS011;19049;52.524;11.468;2023-06-19T05:04:27;5.77;;;5.27;;
32639;SDS011;19049;52.524;11.468;2023-06-19T05:06:57;5.67;;;5.17;;
32639;SDS011;19049;52.524;11.468;2023-06-19T05:09:23;6.53;;;6.00;;
32639;SDS011;19049;52.524;11.468;2023-06-19T05:11:49;6.43;;;5.83;;
32639;SDS011;19049;52.524;11.468;2023-06-19T05:14:15;6.43;;;5.93;;
32639;SDS011;19049;52.524;11.468;2023-06-19T05:16:41;6.57;;;6.00;;
32639;SDS011;19049;52.524;11.468;2023-06-19T05:19:06;6.33;;;5.83;;
32639;SDS011;19049;52.524;11.468;2023-06-19T05:21:32;6.30;;;5.77;;
32639;SDS011;19049;52.524;11.468;2023-06-19T05:23:58;5.93;;;5.40;;
32639;SDS011;19049;52.524;11.468;2023-06-19T05:26:24;6.73;;;6.13;;
32639;SDS011;19049;52.524;11.468;2023-06-19T05:28:51;7.97;;;6.87;;
32639;SDS011;19049;52.524;11.468;2023-06-19T05:31:17;6.70;;;6.10;;
32639;SDS011;19049;52.524;11.468;2023-06-19T05:33:43;6.90;;;6.30;;
32639;SDS011;19049;52.524;11.468;2023-06-19T05:36:09;6.87;;;6.27;;
32639;SDS011;19049;52.524;11.468;2023-06-19T05:38:35;6.87;;;6.27;;
32639;SDS011;19049;52.524;11.468;2023-06-19T05:41:01;7.13;;;6.53;;
32639;SDS011;19049;52.524;11.468;2023-06-19T05:43:27;7.03;;;6.33;;
32639;SDS011;19049;52.524;11.468;2023-06-19T05:45:53;6.90;;;6.30;;
32639;SDS011;19049;52.524;11.468;2023-06-19T05:48:21;6.20;;;5.70;;
32639;SDS011;19049;52.524;11.468;2023-06-19T05:50:46;6.43;;;5.93;;
32639;SDS011;19049;52.524;11.468;2023-06-19T05:53:12;6.00;;;5.50;;
32639;SDS011;19049;52.524;11.468;2023-06-19T05:55:38;6.50;;;6.00;;
32639;SDS011;19049;52.524;11.468;2023-06-19T05:58:04;6.30;;;5.80;;
32639;SDS011;19049;52.524;11.468;2023-06-19T06:00:30;6.40;;;5.90;;
32639;SDS011;19049;52.524;11.468;2023-06-19T06:03:09;5.97;;;5.47;;
32639;SDS011;19049;52.524;11.468;2023-06-19T06:05:34;6.67;;;6.07;;
32639;SDS011;19049;52.524;11.468;2023-06-19T06:08:01;6.43;;;5.93;;
32639;SDS011;19049;52.524;11.468;2023-06-19T06:10:27;6.50;;;5.90;;
32639;SDS011;19049;52.524;11.468;2023-06-19T06:12:53;7.13;;;6.53;;
32639;SDS011;19049;52.524;11.468;2023-06-19T06:15:19;7.97;;;7.17;;
32639;SDS011;19049;52.524;11.468;2023-06-19T06:17:45;7.80;;;7.10;;
32639;SDS011;19049;52.524;11.468;2023-06-19T06:20:11;7.57;;;6.90;;
32639;SDS011;19049;52.524;11.468;2023-06-19T06:22:40;7.07;;;6.47;;
32639;SDS011;19049;52.524;11.468;2023-06-19T06:25:07;8.17;;;7.37;;
32639;SDS011;19049;52.524;11.468;2023-06-19T06:27:33;7.53;;;6.83;;
32639;SDS011;19049;52.524;11.468;2023-06-19T06:29:59;7.73;;;7.03;;
32639;SDS011;19049;52.524;11.468;2023-06-19T06:32:25;7.27;;;6.67;;
32639;SDS011;19049;52.524;11.468;2023-06-19T06:34:52;7.70;;;7.00;;
32639;SDS011;19049;52.524;11.468;2023-06-19T06:37:18;7.00;;;6.40;;
32639;SDS011;19049;52.524;11.468;2023-06-19T06:39:47;6.63;;;6.03;;
32639;SDS011;19049;52.524;11.468;2023-06-19T06:42:16;6.53;;;6.03;;
32639;SDS011;19049;52.524;11.468;2023-06-19T06:44:43;7.10;;;6.40;;
32639;SDS011;19049;52.524;11.468;2023-06-19T06:47:09;8.00;;;7.30;;
32639;SDS011;19049;52.524;11.468;2023-06-19T06:49:35;8.07;;;7.37;;
32639;SDS011;19049;52.524;11.468;2023-06-19T06:52:01;9.50;;;7.97;;
32639;SDS011;19049;52.524;11.468;2023-06-19T06:54:28;9.53;;;8.67;;
32639;SDS011;19049;52.524;11.468;2023-06-19T06:56:54;9.53;;;8.63;;
32639;SDS011;19049;52.524;11.468;2023-06-19T06:59:24;10.20;;;8.90;;
32639;SDS011;19049;52.524;11.468;2023-06-19T07:01:52;9.80;;;8.90;;
32639;SDS011;19049;52.524;11.468;2023-06-19T07:04:18;9.30;;;8.47;;
32639;SDS011;19049;52.524;11.468;2023-06-19T07:06:44;8.37;;;7.63;;
32639;SDS011;19049;52.524;11.468;2023-06-19T07:09:09;8.20;;;7.43;;
32639;SDS011;19049;52.524;11.468;2023-06-19T07:11:35;9.73;;;7.23;;
32639;SDS011;19049;52.524;11.468;2023-06-19T07:14:01;7.70;;;7.00;;
32639;SDS011;19049;52.524;11.468;2023-06-19T07:16:27;7.97;;;7.27;;
32639;SDS011;19049;52.524;11.468;2023-06-19T07:18:53;7.27;;;6.57;;
32639;SDS011;19049;52.524;11.468;2023-06-19T07:21:19;9.50;;;8.07;;
32639;SDS011;19049;52.524;11.468;2023-06-19T07:23:45;8.60;;;7.70;;
32639;SDS011;19049;52.524;11.468;2023-06-19T07:26:14;10.90;;;7.53;;
32639;SDS011;19049;52.524;11.468;2023-06-19T07:28:41;8.10;;;7.30;;
32639;SDS011;19049;52.524;11.468;2023-06-19T07:31:07;9.07;;;7.40;;
32639;SDS011;19049;52.524;11.468;2023-06-19T07:33:33;7.90;;;7.10;;
32639;SDS011;19049;52.524;11.468;2023-06-19T07:35:59;8.00;;;7.10;;
32639;SDS011;19049;52.524;11.468;2023-06-19T07:38:27;7.80;;;7.10;;
32639;SDS011;19049;52.524;11.468;2023-06-19T07:40:53;8.17;;;7.37;;
32639;SDS011;19049;52.524;11.468;2023-06-19T07:43:19;8.87;;;8.07;;
32639;SDS011;19049;52.524;11.468;2023-06-19T07:45:47;9.53;;;8.60;;
32639;SDS011;19049;52.524;11.468;2023-06-19T07:48:13;9.00;;;8.20;;
32639;SDS011;19049;52.524;11.468;2023-06-19T07:50:39;8.40;;;7.60;;
32639;SDS011;19049;52.524;11.468;2023-06-19T07:53:05;8.50;;;7.80;;
32639;SDS011;19049;52.524;11.468;2023-06-19T07:55:30;7.87;;;7.17;;
32639;SDS011;19049;52.524;11.468;2023-06-19T07:57:56;7.80;;;7.10;;
32639;SDS011;19049;52.524;11.468;2023-06-19T08:00:23;8.00;;;7.20;;
32639;SDS011;19049;52.524;11.468;2023-06-19T08:02:49;8.30;;;7.53;;
32639;SDS011;19049;52.524;11.468;2023-06-19T08:05:15;8.20;;;7.47;;
32639;SDS011;19049;52.524;11.468;2023-06-19T08:07:41;9.27;;;8.37;;
32639;SDS011;19049;52.524;11.468;2023-06-19T08:10:07;9.57;;;8.67;;
32639;SDS011;19049;52.524;11.468;2023-06-19T08:12:33;8.43;;;7.60;;
32639;SDS011;19049;52.524;11.468;2023-06-19T08:14:59;8.17;;;7.47;;
32639;SDS011;19049;52.524;11.468;2023-06-19T08:17:25;8.80;;;7.90;;
32639;SDS011;19049;52.524;11.468;2023-06-19T08:19:51;8.50;;;7.80;;
32639;SDS011;19049;52.524;11.468;2023-06-19T08:22:17;9.40;;;8.50;;
32639;SDS011;19049;52.524;11.468;2023-06-19T08:24:43;8.87;;;8.07;;
32639;SDS011;19049;52.524;11.468;2023-06-19T08:27:08;8.27;;;7.57;;
32639;SDS011;19049;52.524;11.468;2023-06-19T08:29:34;9.30;;;8.40;;
32639;SDS011;19049;52.524;11.468;2023-06-19T08:32:00;8.83;;;7.93;;
32639;SDS011;19049;52.524;11.468;2023-06-19T08:34:27;8.00;;;7.30;;
32639;SDS011;19049;52.524;11.468;2023-06-19T08:36:53;7.73;;;7.03;;
32639;SDS011;19049;52.524;11.468;2023-06-19T08:39:19;8.40;;;7.70;;
32639;SDS011;19049;52.524;11.468;2023-06-19T08:41:47;7.67;;;6.97;;
32639;SDS011;19049;52.524;11.468;2023-06-19T08:44:13;13.80;;;8.70;;
32639;SDS011;19049;52.524;11.468;2023-06-19T08:46:39;8.47;;;7.77;;
32639;SDS011;19049;52.524;11.468;2023-06-19T08:49:07;10.17;;;8.97;;
32639;SDS011;19049;52.524;11.468;2023-06-19T08:51:35;9.33;;;8.53;;
32639;SDS011;19049;52.524;11.468;2023-06-19T08:54:02;8.30;;;7.50;;
32639;SDS011;19049;52.524;11.468;2023-06-19T08:56:29;9.57;;;8.67;;
32639;SDS011;19049;52.524;11.468;2023-06-19T08:59:11;8.27;;;7.57;;
32639;SDS011;19049;52.524;11.468;2023-06-19T09:01:48;9.67;;;8.80;;
32639;SDS011;19049;52.524;11.468;2023-06-19T09:04:17;8.50;;;7.73;;
32639;SDS011;19049;52.524;11.468;2023-06-19T09:06:50;7.80;;;7.20;;
32639;SDS011;19049;52.524;11.468;2023-06-19T09:09:18;8.53;;;7.83;;
32639;SDS011;19049;52.524;11.468;2023-06-19T09:12:05;8.27;;;6.93;;
32639;SDS011;19049;52.524;11.468;2023-06-19T09:16:58;8.83;;;7.90;;
32639;SDS011;19049;52.524;11.468;2023-06-19T09:19:24;8.40;;;7.67;;
32639;SDS011;19049;52.524;11.468;2023-06-19T09:21:50;7.57;;;6.97;;
32639;SDS011;19049;52.524;11.468;2023-06-19T09:24:16;8.13;;;7.43;;
32639;SDS011;19049;52.524;11.468;2023-06-19T09:26:42;8.47;;;7.77;;
32639;SDS011;19049;52.524;11.468;2023-06-19T09:29:12;8.30;;;7.60;;
32639;SDS011;19049;52.524;11.468;2023-06-19T09:31:38;8.50;;;7.80;;
32639;SDS011;19049;52.524;11.468;2023-06-19T09:34:06;8.50;;;7.90;;
32639;SDS011;19049;52.524;11.468;2023-06-19T09:36:32;8.47;;;7.73;;
32639;SDS011;19049;52.524;11.468;2023-06-19T09:38:59;8.30;;;7.70;;
32639;SDS011;19049;52.524;11.468;2023-06-19T09:41:26;8.33;;;7.63;;
32639;SDS011;19049;52.524;11.468;2023-06-19T09:43:54;8.87;;;8.07;;
32639;SDS011;19049;52.524;11.468;2023-06-19T09:46:31;8.50;;;7.70;;
32639;SDS011;19049;52.524;11.468;2023-06-19T09:49:01;8.50;;;7.80;;
32639;SDS011;19049;52.524;11.468;2023-06-19T09:51:31;8.20;;;7.60;;
32639;SDS011;19049;52.524;11.468;2023-06-19T09:54:02;9.00;;;8.30;;
32639;SDS011;19049;52.524;11.468;2023-06-19T09:56:29;7.93;;;7.33;;
32639;SDS011;19049;52.524;11.468;2023-06-19T09:59:07;8.60;;;7.80;;
32639;SDS011;19049;52.524;11.468;2023-06-19T10:01:34;8.30;;;7.50;;
32639;SDS011;19049;52.524;11.468;2023-06-19T10:04:03;8.47;;;7.80;;
32639;SDS011;19049;52.524;11.468;2023-06-19T10:06:30;8.67;;;7.87;;
32639;SDS011;19049;52.524;11.468;2023-06-19T10:08:56;8.83;;;8.13;;
32639;SDS011;19049;52.524;11.468;2023-06-19T10:11:48;7.40;;;6.80;;
32639;SDS011;19049;52.524;11.468;2023-06-19T10:14:18;7.17;;;6.63;;
32639;SDS011;19049;52.524;11.468;2023-06-19T10:16:45;7.73;;;6.97;;
32639;SDS011;19049;52.524;11.468;2023-06-19T10:19:11;5.83;;;5.40;;
32639;SDS011;19049;52.524;11.468;2023-06-19T10:21:45;6.13;;;5.67;;
32639;SDS011;19049;52.524;11.468;2023-06-19T10:24:15;6.50;;;6.00;;
32639;SDS011;19049;52.524;11.468;2023-06-19T10:26:54;5.90;;;5.40;;
32639;SDS011;19049;52.524;11.468;2023-06-19T10:29:21;5.77;;;5.27;;
32639;SDS011;19049;52.524;11.468;2023-06-19T10:31:47;5.60;;;5.20;;
32639;SDS011;19049;52.524;11.468;2023-06-19T10:34:13;5.43;;;4.93;;
32639;SDS011;19049;52.524;11.468;2023-06-19T10:36:39;6.07;;;5.10;;
32639;SDS011;19049;52.524;11.468;2023-06-19T10:39:05;7.13;;;6.53;;
32639;SDS011;19049;52.524;11.468;2023-06-19T10:41:32;5.97;;;5.47;;
32639;SDS011;19049;52.524;11.468;2023-06-19T10:44:02;5.77;;;5.33;;
32639;SDS011;19049;52.524;11.468;2023-06-19T10:46:33;5.47;;;5.07;;
32639;SDS011;19049;52.524;11.468;2023-06-19T10:49:03;6.70;;;6.13;;
32639;SDS011;19049;52.524;11.468;2023-06-19T10:51:30;6.30;;;5.80;;
32639;SDS011;19049;52.524;11.468;2023-06-19T10:53:59;6.63;;;6.13;;
32639;SDS011;19049;52.524;11.468;2023-06-19T10:56:25;7.17;;;6.47;;
32639;SDS011;19049;52.524;11.468;2023-06-19T10:58:57;5.67;;;5.27;;
32639;SDS011;19049;52.524;11.468;2023-06-19T11:01:34;5.70;;;5.30;;
32639;SDS011;19049;52.524;11.468;2023-06-19T11:04:02;5.87;;;5.27;;
32639;SDS011;19049;52.524;11.468;2023-06-19T11:06:31;5.73;;;5.23;;
32639;SDS011;19049;52.524;11.468;2023-06-19T11:08:57;5.70;;;5.30;;
32639;SDS011;19049;52.524;11.468;2023-06-19T11:11:34;5.37;;;4.97;;
32639;SDS011;19049;52.524;11.468;2023-06-19T11:14:10;5.27;;;4.87;;
32639;SDS011;19049;52.524;11.468;2023-06-19T11:16:38;6.50;;;5.90;;
32639;SDS011;19049;52.524;11.468;2023-06-19T11:19:06;5.30;;;4.90;;
32639;SDS011;19049;52.524;11.468;2023-06-19T11:21:39;5.70;;;5.20;;
32639;SDS011;19049;52.524;11.468;2023-06-19T11:24:09;6.03;;;5.53;;
32639;SDS011;19049;52.524;11.468;2023-06-19T11:26:40;5.77;;;5.30;;
32639;SDS011;19049;52.524;11.468;2023-06-19T11:29:15;5.73;;;5.33;;
32639;SDS011;19049;52.524;11.468;2023-06-19T11:31:46;7.47;;;6.77;;
32639;SDS011;19049;52.524;11.468;2023-06-19T11:34:13;6.70;;;6.10;;
32639;SDS011;19049;52.524;11.468;2023-06-19T11:36:39;7.10;;;6.50;;
32639;SDS011;19049;52.524;11.468;2023-06-19T11:39:12;6.10;;;5.50;;
32639;SDS011;19049;52.524;11.468;2023-06-19T11:41:39;6.17;;;5.57;;
32639;SDS011;19049;52.524;11.468;2023-06-19T11:44:07;6.20;;;5.70;;
32639;SDS011;19049;52.524;11.468;2023-06-19T11:46:36;6.33;;;5.43;;
32639;SDS011;19049;52.524;11.468;2023-06-19T11:51:34;5.83;;;5.33;;
32639;SDS011;19049;52.524;11.468;2023-06-19T11:54:01;6.30;;;5.70;;
32639;SDS011;19049;52.524;11.468;2023-06-19T11:56:28;7.27;;;5.30;;
32639;SDS011;19049;52.524;11.468;2023-06-19T11:58:54;5.83;;;5.43;;
32639;SDS011;19049;52.524;11.468;2023-06-19T12:01:20;6.13;;;5.70;;
32639;SDS011;19049;52.524;11.468;2023-06-19T12:03:45;6.20;;;5.70;;
32639;SDS011;19049;52.524;11.468;2023-06-19T12:06:11;5.90;;;5.50;;
32639;SDS011;19049;52.524;11.468;2023-06-19T12:08:37;5.97;;;5.47;;
32639;SDS011;19049;52.524;11.468;2023-06-19T12:11:03;6.40;;;5.80;;
32639;SDS011;19049;52.524;11.468;2023-06-19T12:13:30;5.50;;;5.10;;
32639;SDS011;19049;52.524;11.468;2023-06-19T12:15:56;5.73;;;5.30;;
32639;SDS011;19049;52.524;11.468;2023-06-19T12:18:22;6.47;;;5.97;;
32639;SDS011;19049;52.524;11.468;2023-06-19T12:20:47;6.80;;;6.10;;
32639;SDS011;19049;52.524;11.468;2023-06-19T12:23:13;6.53;;;5.97;;
32639;SDS011;19049;52.524;11.468;2023-06-19T12:25:39;6.27;;;5.77;;
32639;SDS011;19049;52.524;11.468;2023-06-19T12:28:05;5.43;;;4.93;;
32639;SDS011;19049;52.524;11.468;2023-06-19T12:30:33;5.50;;;5.10;;
32639;SDS011;19049;52.524;11.468;2023-06-19T12:32:59;6.33;;;5.73;;
32639;SDS011;19049;52.524;11.468;2023-06-19T12:35:24;6.63;;;6.13;;
32639;SDS011;19049;52.524;11.468;2023-06-19T12:37:51;6.53;;;6.03;;
32639;SDS011;19049;52.524;11.468;2023-06-19T12:40:17;6.97;;;6.37;;
32639;SDS011;19049;52.524;11.468;2023-06-19T12:42:43;6.23;;;5.73;;
32639;SDS011;19049;52.524;11.468;2023-06-19T12:45:09;7.10;;;6.30;;
32639;SDS011;19049;52.524;11.468;2023-06-19T12:47:36;7.13;;;6.53;;
32639;SDS011;19049;52.524;11.468;2023-06-19T12:50:02;7.13;;;6.53;;
32639;SDS011;19049;52.524;11.468;2023-06-19T12:52:28;5.87;;;5.47;;
32639;SDS011;19049;52.524;11.468;2023-06-19T12:54:55;6.03;;;5.47;;
32639;SDS011;19049;52.524;11.468;2023-06-19T12:57:21;5.83;;;5.33;;
32639;SDS011;19049;52.524;11.468;2023-06-19T12:59:47;7.10;;;6.50;;
32639;SDS011;19049;52.524;11.468;2023-06-19T13:02:13;7.23;;;6.63;;
32639;SDS011;19049;52.524;11.468;2023-06-19T13:04:39;6.60;;;5.90;;
32639;SDS011;19049;52.524;11.468;2023-06-19T13:07:05;6.67;;;6.07;;
32639;SDS011;19049;52.524;11.468;2023-06-19T13:09:31;5.70;;;5.23;;
32639;SDS011;19049;52.524;11.468;2023-06-19T13:11:57;5.77;;;5.27;;
32639;SDS011;19049;52.524;11.468;2023-06-19T13:14:23;6.73;;;6.23;;
32639;SDS011;19049;52.524;11.468;2023-06-19T13:16:49;6.87;;;6.27;;
32639;SDS011;19049;52.524;11.468;2023-06-19T13:19:15;6.53;;;6.00;;
32639;SDS011;19049;52.524;11.468;2023-06-19T13:21:41;6.80;;;6.27;;
32639;SDS011;19049;52.524;11.468;2023-06-19T13:24:07;6.70;;;5.73;;
32639;SDS011;19049;52.524;11.468;2023-06-19T13:26:33;7.60;;;7.00;;
32639;SDS011;19049;52.524;11.468;2023-06-19T13:28:59;7.23;;;6.53;;
32639;SDS011;19049;52.524;11.468;2023-06-19T13:31:26;7.87;;;6.30;;
32639;SDS011;19049;52.524;11.468;2023-06-19T13:33:52;5.93;;;5.43;;
32639;SDS011;19049;52.524;11.468;2023-06-19T13:36:18;6.23;;;5.73;;
32639;SDS011;19049;52.524;11.468;2023-06-19T13:38:44;6.97;;;6.27;;
32639;SDS011;19049;52.524;11.468;2023-06-19T13:41:11;6.70;;;6.00;;
32639;SDS011;19049;52.524;11.468;2023-06-19T13:43:37;7.87;;;6.33;;
32639;SDS011;19049;52.524;11.468;2023-06-19T13:46:05;6.13;;;5.53;;
32639;SDS011;19049;52.524;11.468;2023-06-19T13:48:31;8.00;;;7.30;;
32639;SDS011;19049;52.524;11.468;2023-06-19T13:50:57;8.90;;;8.10;;
32639;SDS011;19049;52.524;11.468;2023-06-19T13:53:24;8.37;;;7.57;;
32639;SDS011;19049;52.524;11.468;2023-06-19T13:55:50;7.17;;;6.47;;
32639;SDS011;19049;52.524;11.468;2023-06-19T13:58:16;6.40;;;5.80;;
32639;SDS011;19049;52.524;11.468;2023-06-19T14:00:42;6.23;;;5.57;;
32639;SDS011;19049;52.524;11.468;2023-06-19T14:03:07;6.97;;;6.27;;
32639;SDS011;19049;52.524;11.468;2023-06-19T14:05:33;7.00;;;6.40;;
32639;SDS011;19049;52.524;11.468;2023-06-19T14:07:59;6.10;;;5.60;;
32639;SDS011;19049;52.524;11.468;2023-06-19T14:10:25;6.20;;;5.70;;
32639;SDS011;19049;52.524;11.468;2023-06-19T14:12:51;6.70;;;6.10;;
32639;SDS011;19049;52.524;11.468;2023-06-19T14:15:16;6.00;;;5.50;;
32639;SDS011;19049;52.524;11.468;2023-06-19T14:17:42;6.27;;;5.77;;
32639;SDS011;19049;52.524;11.468;2023-06-19T14:20:10;6.13;;;5.63;;
32639;SDS011;19049;52.524;11.468;2023-06-19T14:22:36;7.63;;;6.70;;
32639;SDS011;19049;52.524;11.468;2023-06-19T14:25:02;6.47;;;5.97;;
32639;SDS011;19049;52.524;11.468;2023-06-19T14:27:28;6.10;;;5.60;;
32639;SDS011;19049;52.524;11.468;2023-06-19T14:29:54;5.90;;;5.50;;
32639;SDS011;19049;52.524;11.468;2023-06-19T14:32:21;7.30;;;6.10;;
32639;SDS011;19049;52.524;11.468;2023-06-19T14:34:48;5.93;;;5.43;;
32639;SDS011;19049;52.524;11.468;2023-06-19T14:37:14;5.30;;;4.90;;